EET,Max TemperatureF,Mean TemperatureF,Min TemperatureF,Max Dew PointF,MeanDew PointF,Min DewpointF,Max Humidity, Mean Humidity, Min Humidity, Max Sea Level PressureIn, Mean Sea Level PressureIn, Min Sea Level PressureIn, Max VisibilityMiles, Mean VisibilityMiles, Min VisibilityMiles, Max Wind SpeedMPH, Mean Wind SpeedMPH, Max Gust SpeedMPH,PrecipitationIn, CloudCover, Events, WindDirDegrees
2012-10-1,84,66,48,36,27,10,46,28,6,30.39,30.34,30.33,9,7,6,12,3,,0.00,6,,357
2012-10-2,86,68,51,37,30,23,46,28,13,30.33,30.28,30.24,9,6,6,17,7,,0.00,4,,169
2012-10-3,81,67,51,46,42,36,76,49,26,30.27,30.17,30.09,9,6,3,22,9,38,0.03,6,Rain-Thunderstorm,198
2012-10-4,73,62,48,48,44,41,94,67,24,30.12,30.07,30.01,9,7,6,16,6,,0.12,5,Rain-Thunderstorm,229
2012-10-5,72,60,44,48,45,41,94,72,25,30.21,30.13,30.06,9,6,3,12,5,,0.00,4,,307
2012-10-6,76,60,45,45,40,30,93,63,14,30.24,30.22,30.21,9,7,6,9,3,,0.00,4,,62
2012-10-7,74,60,47,46,42,36,87,63,20,30.21,30.15,30.01,9,6,5,21,7,39,0.04,5,Rain,139
2012-10-8,69,56,44,47,44,41,93,78,58,30.09,30.02,29.98,9,7,5,16,7,,0.12,5,Rain-Thunderstorm,144
2012-10-9,62,54,42,46,44,39,100,84,41,30.06,30.02,29.98,9,6,0,10,6,,0.02,6,Fog-Rain,169
2012-10-10,65,54,44,47,43,37,100,80,33,30.06,30.04,30.01,9,5,0,12,6,,0.04,5,Fog-Rain,140
2012-10-11,64,56,46,49,46,43,94,85,59,30.04,29.93,29.86,9,6,5,29,12,,0.12,6,Rain,178
2012-10-12,59,50,41,44,41,36,93,75,38,30.24,30.16,29.95,9,6,6,13,7,,0.00,5,,305
2012-10-13,64,52,39,43,38,36,93,71,27,30.27,30.22,30.21,9,7,6,9,5,,0.00,6,,128
2012-10-14,71,55,39,40,35,30,81,54,14,30.24,30.20,30.18,9,7,6,9,5,,0.00,5,,133
2012-10-15,75,57,39,42,35,32,76,50,13,30.33,30.26,30.21,9,9,9,8,5,,0.00,,,120
2012-10-16,75,58,42,40,35,27,76,51,10,30.36,30.32,30.30,9,9,9,13,3,,0.00,,,335
2012-10-17,75,58,41,43,37,26,73,52,8,30.33,30.30,30.17,9,9,9,16,6,,0.00,,,360
2012-10-18,74,59,42,46,40,36,87,57,18,30.33,30.28,30.24,9,7,6,15,6,,0.00,4,,37
2012-10-19,69,56,39,45,41,37,100,74,21,30.27,30.23,30.21,9,6,2,13,3,,0.00,3,,359
2012-10-20,72,59,46,46,39,32,93,66,20,30.21,30.17,30.12,9,6,4,18,7,,0.20,6,Rain-Thunderstorm,115
2012-10-21,68,56,43,45,40,36,87,66,23,30.21,30.19,30.15,9,7,6,16,8,,0.00,5,,132
2012-10-22,70,57,42,44,40,37,81,68,42,30.21,30.18,30.12,9,6,6,22,10,,0.00,4,,128
2012-10-23,57,50,42,47,42,39,93,78,51,30.12,30.10,30.09,9,6,6,10,5,,0.04,5,,127
2012-10-24,65,53,41,43,40,36,100,68,23,30.12,30.09,30.00,9,6,6,13,6,,0.00,5,,176
2012-10-25,61,51,39,43,39,36,93,74,39,30.06,29.99,29.92,9,7,6,14,8,,0.00,5,,125
2012-10-26,55,46,37,41,38,36,100,77,51,30.04,29.97,29.92,9,6,6,12,4,,0.00,3,,324
2012-10-27,64,50,37,43,36,32,100,71,28,30.12,30.07,30.04,9,6,1,7,3,,0.00,3,Fog,233
2012-10-28,68,52,35,37,33,27,87,55,17,30.21,30.17,30.12,9,9,9,12,6,,0.00,,,191
2012-10-29,70,54,39,38,34,32,81,46,16,30.21,30.17,30.12,9,8,6,8,4,,0.00,3,,147
2012-10-30,72,58,43,38,31,21,58,37,8,30.09,30.04,30.01,9,7,6,18,12,,0.00,6,,182
2012-10-31,64,54,43,46,38,34,78,57,34,30.18,30.16,30.15,9,7,6,18,7,,0.08,6,Rain,160